香港 の空港の天気 - METARとTAF

香港国際空港 ( VHHH / HKG ) - 香港 赤リョウ角
飛行場実況気象(Metar)
観測時間05/31 01:00 HKT (05/30 17:00 UTC)
風向・風速南南西 4m/s
視程10km以上
天気現象
少しの雲 雲底高度 460m
気温29℃
湿度84%
気圧1011hPa
METARVHHH 301700Z 20007KT 9999 FEW015 29/26 Q1011 NOSIG
過去の天気等 Google飛行場航空写真 Wunderground天気予報

過去48時間のMETAR

飛行場予報(TAF)
発表時間: 5/30 19:00 HKT (5/30 11:00 UTC)
予報対象時間: 30日20時 HKT ~ 1日2時 HKT
風向・風速南南西 5m/s
視程10km以上
少しの雲 雲底高度 460m
全天の4割程度の雲 雲底高度 1070m
30日20時 HKT ~ 31日4時 HKT に一時的に
風向・風速不定 3m/s
視程3000m
天気現象しゅう雨
少しの積乱雲 雲底高度 300m
全天の4割程度の雲 雲底高度 610m
31日4時 HKT ~ 31日10時 HKT に一時的に
風向・風速不定 8m/s 瞬間風速 13m/s
視程2500m
天気現象雷雨 しゅう雨
少しの積乱雲 雲底高度 240m
全天の4割程度の雲 雲底高度 610m
全天の8割程度の雲 雲底高度 1220m
31日10時 HKT ~ 31日14時 HKT に一時的に
風向・風速不定 3m/s
視程4000m
天気現象しゅう雨
少しの積乱雲 雲底高度 300m
全天の4割程度の雲 雲底高度 610m
31日23時 HKT ~ 1日2時 HKT に一時的に
視程3500m
天気現象しゅう雨
少しの積乱雲 雲底高度 300m
全天の4割程度の雲 雲底高度 610m
TAF VHHH 301100Z 3012/3118 20010KT 9999 FEW015 SCT035 TX31/3106Z TN26/3022Z
TEMPO 3012/3020 VRB05KT 3000 SHRA FEW010CB SCT020
TEMPO 3020/3102 VRB15G25KT 2500 TSRA SHRA FEW008CB SCT020 BKN040
TEMPO 3102/3106 VRB05KT 4000 SHRA FEW010CB SCT020
TEMPO 3115/3118 3500 SHRA FEW010CB SCT020